createdAt,value
2018-10-21T00:02:17.426Z,102186.00
2018-10-21T00:04:46.700Z,102173.00
2018-10-21T00:07:16.108Z,102174.00
2018-10-21T00:09:45.442Z,102181.00
2018-10-21T00:12:14.826Z,102192.00
2018-10-21T00:14:44.249Z,102182.00
2018-10-21T00:17:15.703Z,102178.00
2018-10-21T00:19:45.137Z,102180.00
2018-10-21T00:22:14.676Z,102188.00
2018-10-21T00:24:44.157Z,102185.00
2018-10-21T00:27:17.676Z,102188.00
2018-10-21T00:29:47.148Z,102187.00
2018-10-21T00:32:16.836Z,102190.00
2018-10-21T00:34:46.146Z,102186.00
2018-10-21T00:37:15.514Z,102176.00
2018-10-21T00:39:44.844Z,102170.00
2018-10-21T00:42:16.389Z,102173.00
2018-10-21T00:44:45.728Z,102170.00
2018-10-21T00:47:15.181Z,102163.00
2018-10-21T00:49:44.501Z,102164.00
2018-10-21T00:52:13.848Z,102164.00
2018-10-21T00:54:43.234Z,102161.00
2018-10-21T00:57:12.738Z,102157.00
2018-10-21T00:59:42.005Z,102159.00
2018-10-21T01:02:11.391Z,102149.00
2018-10-21T01:04:40.950Z,102149.00
2018-10-21T01:07:10.561Z,102153.00
2018-10-21T01:09:39.964Z,102158.00
2018-10-21T01:12:09.549Z,102160.00
2018-10-21T01:14:38.979Z,102172.00
2018-10-21T01:17:08.364Z,102163.00
2018-10-21T01:19:37.791Z,102164.00
2018-10-21T01:22:07.327Z,102160.00
2018-10-21T01:24:36.784Z,102155.00
2018-10-21T01:27:07.153Z,102151.00
2018-10-21T01:29:36.858Z,102164.00
2018-10-21T01:32:06.329Z,102159.00
2018-10-21T01:34:35.763Z,102162.00
2018-10-21T01:37:06.012Z,102163.00
2018-10-21T01:40:49.287Z,102151.00
2018-10-21T01:43:20.937Z,102159.00
2018-10-21T01:45:50.401Z,102157.00
2018-10-21T01:48:20.755Z,102168.00
2018-10-21T01:50:50.032Z,102173.00
2018-10-21T01:53:19.908Z,102166.00
2018-10-21T01:55:49.392Z,102169.00
2018-10-21T01:58:18.919Z,102165.00
2018-10-21T02:00:48.276Z,102170.00
2018-10-21T02:03:17.734Z,102165.00
2018-10-21T02:05:47.879Z,102162.00
2018-10-21T02:08:17.262Z,102169.00
2018-10-21T02:10:46.629Z,102167.00
2018-10-21T02:13:16.040Z,102157.00
2018-10-21T02:15:45.611Z,102156.00
2018-10-21T02:18:14.984Z,102150.00
2018-10-21T02:20:44.361Z,102142.00
2018-10-21T02:23:13.709Z,102148.00
2018-10-21T02:25:43.061Z,102148.00
2018-10-21T02:28:12.650Z,102140.00
2018-10-21T02:30:42.051Z,102141.00
2018-10-21T02:33:11.827Z,102132.00
2018-10-21T02:35:41.051Z,102132.00
2018-10-21T02:38:10.379Z,102134.00
2018-10-21T02:41:53.405Z,102138.00
2018-10-21T02:44:23.190Z,102135.00
2018-10-21T02:46:53.658Z,102135.00
2018-10-21T02:49:23.482Z,102137.00
2018-10-21T02:51:58.006Z,102129.00
2018-10-21T02:54:30.466Z,102136.00
2018-10-21T02:56:59.976Z,102142.00
2018-10-21T02:59:29.255Z,102127.00
2018-10-21T03:01:58.607Z,102131.00
2018-10-21T03:04:27.921Z,102134.00
2018-10-21T03:06:57.298Z,102125.00
2018-10-21T03:09:28.522Z,102127.00
2018-10-21T03:11:57.891Z,102126.00
2018-10-21T03:14:27.178Z,102115.00
2018-10-21T03:16:56.617Z,102130.00
2018-10-21T03:19:26.231Z,102120.00
2018-10-21T03:21:55.564Z,102112.00
2018-10-21T03:24:25.002Z,102128.00
2018-10-21T03:26:54.425Z,102132.00
2018-10-21T03:29:23.991Z,102121.00
2018-10-21T03:31:53.782Z,102114.00
2018-10-21T03:34:23.185Z,102120.00
2018-10-21T03:36:52.609Z,102118.00
2018-10-21T03:39:24.086Z,102102.00
2018-10-21T03:41:53.507Z,102113.00
2018-10-21T03:44:22.846Z,102125.00
2018-10-21T03:46:52.278Z,102121.00
2018-10-21T03:49:21.662Z,102117.00
2018-10-21T03:51:50.985Z,102113.00
2018-10-21T03:54:20.412Z,102120.00
2018-10-21T03:56:50.036Z,102130.00
2018-10-21T03:59:19.300Z,102119.00
2018-10-21T04:01:48.710Z,102116.00
2018-10-21T04:04:19.457Z,102112.00
2018-10-21T04:06:48.921Z,102112.00
2018-10-21T04:09:18.261Z,102117.00
2018-10-21T04:11:47.870Z,102112.00
2018-10-21T04:14:17.274Z,102104.00
2018-10-21T04:16:46.630Z,102113.00
2018-10-21T04:19:16.053Z,102110.00
2018-10-21T04:21:45.380Z,102110.00
2018-10-21T04:24:14.773Z,102109.00
2018-10-21T04:26:44.172Z,102112.00
2018-10-21T04:29:13.521Z,102105.00
2018-10-21T04:31:42.897Z,102104.00
2018-10-21T04:34:12.388Z,102113.00
2018-10-21T04:36:41.829Z,102104.00
2018-10-21T04:39:28.042Z,102095.00
2018-10-21T04:41:57.453Z,102094.00
2018-10-21T04:44:26.827Z,102091.00
2018-10-21T04:46:56.878Z,102088.00
2018-10-21T04:49:26.128Z,102082.00
2018-10-21T04:51:55.504Z,102090.00
2018-10-21T04:54:24.856Z,102075.00
2018-10-21T04:56:54.237Z,102076.00
2018-10-21T04:59:23.590Z,102086.00
2018-10-21T05:01:53.320Z,102085.00
2018-10-21T05:04:22.579Z,102080.00
2018-10-21T05:06:52.042Z,102076.00
2018-10-21T05:09:23.195Z,102075.00
2018-10-21T05:11:52.832Z,102078.00
2018-10-21T05:14:22.155Z,102076.00
2018-10-21T05:16:51.574Z,102081.00
2018-10-21T05:19:20.982Z,102077.00
2018-10-21T05:21:50.731Z,102075.00
2018-10-21T05:24:20.115Z,102082.00
2018-10-21T05:26:49.759Z,102073.00
2018-10-21T05:29:20.170Z,102083.00
2018-10-21T05:31:49.503Z,102087.00
2018-10-21T05:34:18.882Z,102076.00
2018-10-21T05:36:48.204Z,102070.00
2018-10-21T05:39:17.593Z,102083.00
2018-10-21T05:41:47.001Z,102088.00
2018-10-21T05:44:17.436Z,102089.00
2018-10-21T05:46:48.179Z,102087.00
2018-10-21T05:49:17.610Z,102088.00
2018-10-21T05:51:48.263Z,102096.00
2018-10-21T05:54:18.457Z,102096.00
2018-10-21T05:56:49.186Z,102093.00
2018-10-21T05:59:18.982Z,102100.00
2018-10-21T06:01:48.820Z,102107.00
2018-10-21T06:04:18.848Z,102109.00
2018-10-21T06:06:48.211Z,102109.00
2018-10-21T06:09:18.661Z,102115.00
2018-10-21T06:11:48.009Z,102119.00
2018-10-21T06:14:17.854Z,102120.00
2018-10-21T06:17:09.853Z,102125.00
2018-10-21T06:20:15.076Z,102121.00
2018-10-21T06:22:46.193Z,102137.00
2018-10-21T06:25:15.526Z,102130.00
2018-10-21T06:27:44.867Z,102131.00
2018-10-21T06:30:18.217Z,102135.00
2018-10-21T06:32:47.538Z,102117.00
2018-10-21T06:35:16.858Z,102115.00
2018-10-21T06:37:46.304Z,102114.00
2018-10-21T06:40:15.929Z,102118.00
2018-10-21T06:42:45.318Z,102130.00
2018-10-21T06:45:14.707Z,102116.00
2018-10-21T06:47:44.283Z,102112.00
2018-10-21T06:50:18.115Z,102118.00
2018-10-21T06:52:47.696Z,102128.00
2018-10-21T06:55:17.317Z,102119.00
2018-10-21T06:57:47.002Z,102126.00
2018-10-21T07:00:16.583Z,102127.00
2018-10-21T07:02:45.973Z,102120.00
2018-10-21T07:05:32.107Z,102122.00
2018-10-21T07:08:03.566Z,102116.00
2018-10-21T07:10:33.004Z,102116.00
2018-10-21T07:13:02.343Z,102111.00
2018-10-21T07:15:31.808Z,102122.00
2018-10-21T07:18:01.097Z,102119.00
2018-10-21T07:20:30.378Z,102129.00
2018-10-21T07:22:59.986Z,102131.00
2018-10-21T07:25:29.309Z,102126.00
2018-10-21T07:27:58.701Z,102121.00
2018-10-21T07:30:28.033Z,102128.00
2018-10-21T07:32:57.478Z,102139.00
2018-10-21T07:35:26.809Z,102128.00
2018-10-21T07:37:56.329Z,102136.00
2018-10-21T07:40:25.799Z,102129.00
2018-10-21T07:42:55.194Z,102140.00
2018-10-21T07:45:24.619Z,102145.00
2018-10-21T07:47:53.931Z,102146.00
2018-10-21T07:50:23.298Z,102156.00
2018-10-21T07:52:52.594Z,102156.00
2018-10-21T07:55:21.969Z,102163.00
2018-10-21T07:57:51.356Z,102155.00
2018-10-21T08:00:20.687Z,102164.00
2018-10-21T08:02:50.157Z,102163.00
2018-10-21T08:05:36.299Z,102166.00
2018-10-21T08:08:19.052Z,102165.00
2018-10-21T08:10:48.452Z,102182.00
2018-10-21T08:13:19.308Z,102169.00
2018-10-21T08:15:48.680Z,102169.00
2018-10-21T08:18:19.200Z,102171.00
2018-10-21T08:20:49.609Z,102176.00
2018-10-21T08:23:19.638Z,102169.00
2018-10-21T08:25:50.279Z,102168.00
2018-10-21T08:28:19.623Z,102174.00
2018-10-21T08:30:48.990Z,102178.00
2018-10-21T08:33:18.498Z,102175.00
2018-10-21T08:35:47.911Z,102172.00
2018-10-21T08:38:17.338Z,102170.00
2018-10-21T08:40:46.653Z,102176.00
2018-10-21T08:43:17.097Z,102179.00
2018-10-21T08:45:46.650Z,102170.00
2018-10-21T08:48:16.020Z,102175.00
2018-10-21T08:50:45.436Z,102178.00
2018-10-21T08:53:14.760Z,102177.00
2018-10-21T08:55:44.235Z,102178.00
2018-10-21T08:58:13.655Z,102179.00
2018-10-21T09:00:42.873Z,102179.00
2018-10-21T09:03:12.176Z,102175.00
2018-10-21T09:05:41.579Z,102180.00
2018-10-21T09:08:10.902Z,102176.00
2018-10-21T09:10:40.368Z,102183.00
2018-10-21T09:13:09.597Z,102180.00
2018-10-21T09:15:38.972Z,102173.00
2018-10-21T09:18:08.425Z,102180.00
2018-10-21T09:20:37.776Z,102180.00
2018-10-21T09:23:07.173Z,102186.00
2018-10-21T09:25:36.667Z,102178.00
2018-10-21T09:28:06.283Z,102182.00
2018-10-21T09:30:40.622Z,102176.00
2018-10-21T09:33:10.224Z,102173.00
2018-10-21T09:35:39.695Z,102176.00
2018-10-21T09:38:09.126Z,102180.00
2018-10-21T09:40:38.467Z,102172.00
2018-10-21T09:43:07.953Z,102174.00
2018-10-21T09:45:37.314Z,102164.00
2018-10-21T09:48:07.309Z,102166.00
2018-10-21T09:50:37.682Z,102164.00
2018-10-21T09:53:07.155Z,102160.00
2018-10-21T09:55:36.825Z,102163.00
2018-10-21T09:58:06.373Z,102158.00
2018-10-21T10:00:40.743Z,102155.00
2018-10-21T10:03:10.053Z,102148.00
2018-10-21T10:05:39.522Z,102150.00
2018-10-21T10:08:08.863Z,102149.00
2018-10-21T10:10:38.428Z,102153.00
2018-10-21T10:13:09.912Z,102135.00
2018-10-21T10:15:39.211Z,102144.00
2018-10-21T10:18:08.631Z,102137.00
2018-10-21T10:20:38.233Z,102132.00
2018-10-21T10:23:07.658Z,102136.00
2018-10-21T10:25:37.139Z,102126.00
2018-10-21T10:28:07.524Z,102126.00
2018-10-21T10:30:37.137Z,102118.00
2018-10-21T10:33:09.021Z,102125.00
2018-10-21T10:35:38.365Z,102110.00
2018-10-21T10:38:07.682Z,102109.00
2018-10-21T10:40:36.977Z,102109.00
2018-10-21T10:43:06.402Z,102109.00
2018-10-21T10:45:35.688Z,102101.00
2018-10-21T10:48:06.347Z,102090.00
2018-10-21T10:50:35.668Z,102095.00
2018-10-21T10:53:05.215Z,102086.00
2018-10-21T10:55:39.687Z,102093.00
2018-10-21T10:58:09.090Z,102089.00
2018-10-21T11:00:38.383Z,102084.00
2018-10-21T11:03:07.793Z,102081.00
2018-10-21T11:05:37.187Z,102078.00
2018-10-21T11:08:06.650Z,102080.00
2018-10-21T11:10:35.944Z,102079.00
2018-10-21T11:13:05.462Z,102071.00
2018-10-21T11:15:35.036Z,102076.00
2018-10-21T11:18:04.431Z,102072.00
2018-10-21T11:20:33.854Z,102075.00
2018-10-21T11:23:03.312Z,102064.00
2018-10-21T11:25:32.710Z,102065.00
2018-10-21T11:28:02.220Z,102068.00
2018-10-21T11:30:31.549Z,102060.00
2018-10-21T11:33:00.878Z,102064.00
2018-10-21T11:35:30.433Z,102049.00
2018-10-21T11:37:59.814Z,102051.00
2018-10-21T11:40:29.251Z,102045.00
2018-10-21T11:42:58.616Z,102049.00
2018-10-21T11:45:28.209Z,102036.00
2018-10-21T11:47:57.850Z,102043.00
2018-10-21T11:50:27.207Z,102039.00
2018-10-21T11:52:56.603Z,102030.00
2018-10-21T11:55:26.092Z,102024.00
2018-10-21T11:57:55.550Z,102015.00
2018-10-21T12:00:24.916Z,102018.00
2018-10-21T12:03:03.284Z,102018.00
2018-10-21T12:05:32.936Z,102014.00
2018-10-21T12:08:02.313Z,102013.00
2018-10-21T12:10:31.760Z,102007.00
2018-10-21T12:13:01.149Z,102000.00
2018-10-21T12:15:30.550Z,102002.00
2018-10-21T12:17:59.953Z,101992.00
2018-10-21T12:20:30.414Z,101990.00
2018-10-21T12:22:59.948Z,101990.00
2018-10-21T12:25:29.372Z,101996.00
2018-10-21T12:27:58.792Z,101992.00
2018-10-21T12:30:28.327Z,101987.00
2018-10-21T12:32:57.677Z,101985.00
2018-10-21T12:35:27.029Z,101977.00
2018-10-21T12:37:56.379Z,101979.00
2018-10-21T12:40:25.877Z,101985.00
2018-10-21T12:42:55.281Z,101972.00
2018-10-21T12:45:26.744Z,101971.00
2018-10-21T12:47:56.147Z,101973.00
2018-10-21T12:50:25.512Z,101974.00
2018-10-21T12:52:55.100Z,101958.00
2018-10-21T12:55:24.587Z,101955.00
2018-10-21T12:57:54.045Z,101954.00
2018-10-21T13:00:23.388Z,101949.00
2018-10-21T13:02:52.766Z,101950.00
2018-10-21T13:05:22.189Z,101956.00
2018-10-21T13:07:51.519Z,101946.00
2018-10-21T13:10:20.895Z,101947.00
2018-10-21T13:12:50.309Z,101936.00
2018-10-21T13:15:19.616Z,101941.00
2018-10-21T13:17:48.925Z,101938.00
2018-10-21T13:20:18.277Z,101929.00
2018-10-21T13:22:47.686Z,101931.00
2018-10-21T13:25:17.249Z,101931.00
2018-10-21T13:27:46.647Z,101933.00
2018-10-21T13:30:16.014Z,101919.00
2018-10-21T13:32:45.581Z,101924.00
2018-10-21T13:35:15.025Z,101923.00
2018-10-21T13:37:44.460Z,101913.00
2018-10-21T13:40:13.964Z,101916.00
2018-10-21T13:42:43.179Z,101910.00
2018-10-21T13:45:12.622Z,101912.00
2018-10-21T13:47:42.002Z,101910.00
2018-10-21T13:50:11.328Z,101904.00
2018-10-21T13:52:40.759Z,101904.00
2018-10-21T13:55:10.236Z,101902.00
2018-10-21T13:57:39.633Z,101895.00
2018-10-21T14:00:09.764Z,101891.00
2018-10-21T14:02:39.339Z,101896.00
2018-10-21T14:05:09.524Z,101894.00
2018-10-21T14:07:39.086Z,101897.00
2018-10-21T14:10:08.561Z,101901.00
2018-10-21T14:12:37.916Z,101896.00
2018-10-21T14:15:07.881Z,101887.00
2018-10-21T14:17:37.185Z,101892.00
2018-10-21T14:20:08.634Z,101888.00
2018-10-21T14:22:37.973Z,101878.00
2018-10-21T14:25:07.597Z,101887.00
2018-10-21T14:27:36.960Z,101877.00
2018-10-21T14:30:09.360Z,101883.00
2018-10-21T14:32:40.128Z,101877.00
2018-10-21T14:35:11.621Z,101885.00
2018-10-21T14:37:41.032Z,101881.00
2018-10-21T14:40:12.671Z,101886.00
2018-10-21T14:42:42.234Z,101887.00
2018-10-21T14:45:13.400Z,101883.00
2018-10-21T14:47:42.899Z,101875.00
2018-10-21T14:50:12.827Z,101862.00
2018-10-21T14:52:42.165Z,101871.00
2018-10-21T14:55:11.985Z,101869.00
2018-10-21T14:57:41.422Z,101871.00
2018-10-21T15:00:12.906Z,101863.00
2018-10-21T15:02:42.828Z,101853.00
2018-10-21T15:05:13.235Z,101859.00
2018-10-21T15:07:44.449Z,101856.00
2018-10-21T15:10:14.298Z,101857.00
2018-10-21T15:12:43.698Z,101849.00
2018-10-21T15:15:13.139Z,101848.00
2018-10-21T15:17:42.543Z,101846.00
2018-10-21T15:20:13.184Z,101841.00
2018-10-21T15:22:42.495Z,101844.00
2018-10-21T15:25:12.545Z,101847.00
2018-10-21T15:27:42.447Z,101847.00
2018-10-21T15:30:14.132Z,101837.00
2018-10-21T15:32:43.572Z,101846.00
2018-10-21T15:35:12.942Z,101837.00
2018-10-21T15:37:42.375Z,101834.00
2018-10-21T15:40:12.427Z,101839.00
2018-10-21T15:42:41.800Z,101841.00
2018-10-21T15:45:12.082Z,101830.00
2018-10-21T15:47:41.537Z,101826.00
2018-10-21T15:50:11.071Z,101825.00
2018-10-21T15:52:40.471Z,101821.00
2018-10-21T15:55:10.554Z,101829.00
2018-10-21T15:57:39.965Z,101829.00
2018-10-21T16:00:12.138Z,101822.00
2018-10-21T16:02:42.520Z,101825.00
2018-10-21T16:05:12.829Z,101821.00
2018-10-21T16:07:42.219Z,101822.00
2018-10-21T16:10:11.748Z,101822.00
2018-10-21T16:12:41.142Z,101820.00
2018-10-21T16:15:14.137Z,101826.00
2018-10-21T16:17:44.403Z,101819.00
2018-10-21T16:20:13.840Z,101828.00
2018-10-21T16:22:44.068Z,101817.00
2018-10-21T16:25:14.997Z,101816.00
2018-10-21T16:27:44.335Z,101810.00
2018-10-21T16:30:17.867Z,101820.00
2018-10-21T16:32:47.490Z,101823.00
2018-10-21T16:35:17.290Z,101823.00
2018-10-21T16:37:46.753Z,101825.00
2018-10-21T16:40:17.922Z,101823.00
2018-10-21T16:42:47.441Z,101823.00
2018-10-21T16:45:16.990Z,101826.00
2018-10-21T16:47:46.320Z,101821.00
2018-10-21T16:50:17.023Z,101827.00
2018-10-21T16:52:47.258Z,101818.00
2018-10-21T16:55:17.751Z,101820.00
2018-10-21T16:57:47.197Z,101823.00
2018-10-21T17:00:18.368Z,101823.00
2018-10-21T17:02:47.629Z,101822.00
2018-10-21T17:05:17.195Z,101826.00
2018-10-21T17:07:46.444Z,101828.00
2018-10-21T17:10:16.090Z,101825.00
2018-10-21T17:12:45.266Z,101827.00
2018-10-21T17:15:14.675Z,101833.00
2018-10-21T17:17:44.250Z,101833.00
2018-10-21T17:20:15.537Z,101832.00
2018-10-21T17:22:45.509Z,101830.00
2018-10-21T17:25:15.770Z,101833.00
2018-10-21T17:27:45.149Z,101832.00
2018-10-21T17:30:16.398Z,101833.00
2018-10-21T17:32:46.034Z,101830.00
2018-10-21T17:35:15.612Z,101838.00
2018-10-21T17:37:44.968Z,101834.00
2018-10-21T17:40:14.560Z,101833.00
2018-10-21T17:42:43.729Z,101837.00
2018-10-21T17:45:14.527Z,101839.00
2018-10-21T17:47:43.876Z,101839.00
2018-10-21T17:50:14.456Z,101841.00
2018-10-21T17:52:44.256Z,101839.00
2018-10-21T17:55:13.987Z,101828.00
2018-10-21T17:57:43.322Z,101823.00
2018-10-21T18:00:13.505Z,101820.00
2018-10-21T18:02:42.845Z,101823.00
2018-10-21T18:05:13.821Z,101826.00
2018-10-21T18:07:43.537Z,101830.00
2018-10-21T18:10:13.303Z,101816.00
2018-10-21T18:12:42.644Z,101828.00
2018-10-21T18:15:13.135Z,101832.00
2018-10-21T18:17:43.440Z,101826.00
2018-10-21T18:20:13.579Z,101840.00
2018-10-21T18:22:43.019Z,101846.00
2018-10-21T18:25:12.400Z,101848.00
2018-10-21T18:27:42.250Z,101851.00
2018-10-21T18:30:12.594Z,101852.00
2018-10-21T18:32:42.421Z,101844.00
2018-10-21T18:35:13.807Z,101842.00
2018-10-21T18:37:43.690Z,101838.00
2018-10-21T18:40:13.369Z,101838.00
2018-10-21T18:42:42.743Z,101836.00
2018-10-21T18:45:15.320Z,101839.00
2018-10-21T18:47:45.066Z,101832.00
2018-10-21T18:50:15.307Z,101827.00
2018-10-21T18:52:45.034Z,101832.00
2018-10-21T18:55:14.667Z,101829.00
2018-10-21T18:57:44.050Z,101825.00
2018-10-21T19:00:19.861Z,101835.00
2018-10-21T19:02:49.395Z,101839.00
2018-10-21T19:05:18.817Z,101834.00
2018-10-21T19:07:48.300Z,101829.00
2018-10-21T19:10:17.719Z,101830.00
2018-10-21T19:12:59.570Z,101830.00
2018-10-21T19:15:18.881Z,101828.00
2018-10-21T19:17:48.347Z,101830.00
2018-10-21T19:20:18.078Z,101828.00
2018-10-21T19:22:47.527Z,101842.00
2018-10-21T19:25:18.550Z,101828.00
2018-10-21T19:27:47.971Z,101829.00
2018-10-21T19:30:17.406Z,101833.00
2018-10-21T19:32:47.095Z,101828.00
2018-10-21T19:35:17.183Z,101828.00
2018-10-21T19:37:46.602Z,101824.00
2018-10-21T19:40:16.623Z,101838.00
2018-10-21T19:42:46.087Z,101834.00
2018-10-21T19:45:16.223Z,101841.00
2018-10-21T19:47:45.629Z,101835.00
2018-10-21T19:50:16.109Z,101831.00
2018-10-21T19:52:45.855Z,101828.00
2018-10-21T19:55:15.325Z,101828.00
2018-10-21T19:57:45.612Z,101826.00
2018-10-21T20:00:16.295Z,101835.00
2018-10-21T20:02:46.221Z,101826.00
2018-10-21T20:05:15.706Z,101829.00
2018-10-21T20:07:45.222Z,101829.00
2018-10-21T20:10:16.405Z,101825.00
2018-10-21T20:12:45.635Z,101833.00
2018-10-21T20:15:15.145Z,101831.00
2018-10-21T20:17:44.494Z,101824.00
2018-10-21T20:20:14.127Z,101834.00
2018-10-21T20:22:43.672Z,101829.00
2018-10-21T20:25:13.420Z,101828.00
2018-10-21T20:27:44.007Z,101832.00
2018-10-21T20:30:14.374Z,101832.00
2018-10-21T20:32:44.015Z,101830.00
2018-10-21T20:35:13.574Z,101828.00
2018-10-21T20:37:43.128Z,101840.00
2018-10-21T20:40:12.810Z,101837.00
2018-10-21T20:42:42.325Z,101835.00
2018-10-21T20:45:13.282Z,101828.00
2018-10-21T20:47:42.872Z,101834.00
2018-10-21T20:50:12.354Z,101838.00
2018-10-21T20:52:43.003Z,101840.00
2018-10-21T20:55:12.587Z,101840.00
2018-10-21T20:57:42.178Z,101848.00
2018-10-21T21:00:11.844Z,101851.00
2018-10-21T21:02:41.331Z,101854.00
2018-10-21T21:05:10.802Z,101853.00
2018-10-21T21:07:40.260Z,101860.00
2018-10-21T21:10:10.019Z,101860.00
2018-10-21T21:12:39.568Z,101853.00
2018-10-21T21:15:09.364Z,101861.00
2018-10-21T21:17:38.825Z,101863.00
2018-10-21T21:20:09.352Z,101862.00
2018-10-21T21:22:38.964Z,101860.00
2018-10-21T21:25:08.485Z,101856.00
2018-10-21T21:27:37.967Z,101857.00
2018-10-21T21:30:08.212Z,101854.00
2018-10-21T21:32:37.758Z,101862.00
2018-10-21T21:35:08.146Z,101856.00
2018-10-21T21:37:38.168Z,101869.00
2018-10-21T21:40:09.352Z,101869.00
2018-10-21T21:42:39.363Z,101865.00
2018-10-21T21:45:09.465Z,101865.00
2018-10-21T21:47:39.164Z,101863.00
2018-10-21T21:50:09.182Z,101856.00
2018-10-21T21:52:38.838Z,101859.00
2018-10-21T21:55:08.412Z,101864.00
2018-10-21T21:57:38.006Z,101856.00
2018-10-21T22:00:12.300Z,101856.00
2018-10-21T22:02:41.914Z,101852.00
2018-10-21T22:05:11.501Z,101843.00
2018-10-21T22:07:41.512Z,101863.00
2018-10-21T22:10:13.303Z,101853.00
2018-10-21T22:12:43.560Z,101870.00
2018-10-21T22:15:13.085Z,101869.00
2018-10-21T22:17:42.691Z,101856.00
2018-10-21T22:20:13.317Z,101851.00
2018-10-21T22:22:43.102Z,101853.00
2018-10-21T22:25:12.591Z,101855.00
2018-10-21T22:27:42.081Z,101857.00
2018-10-21T22:30:12.123Z,101848.00
2018-10-21T22:32:41.714Z,101844.00
2018-10-21T22:35:11.311Z,101842.00
2018-10-21T22:37:40.790Z,101840.00
2018-10-21T22:40:10.380Z,101835.00
2018-10-21T22:42:39.934Z,101831.00
2018-10-21T22:45:10.535Z,101828.00
2018-10-21T22:47:40.116Z,101834.00
2018-10-21T22:50:11.556Z,101833.00
2018-10-21T22:52:41.509Z,101843.00
2018-10-21T22:55:11.242Z,101844.00
2018-10-21T22:57:40.686Z,101835.00
2018-10-21T23:00:10.779Z,101839.00
2018-10-21T23:02:40.195Z,101848.00
2018-10-21T23:05:10.068Z,101844.00
2018-10-21T23:07:40.075Z,101846.00
2018-10-21T23:10:09.638Z,101851.00
2018-10-21T23:12:39.189Z,101848.00
2018-10-21T23:15:08.759Z,101847.00
2018-10-21T23:17:38.497Z,101853.00
2018-10-21T23:20:08.455Z,101856.00
2018-10-21T23:22:38.110Z,101857.00
2018-10-21T23:25:08.036Z,101847.00
2018-10-21T23:27:37.650Z,101839.00
2018-10-21T23:30:08.128Z,101846.00
2018-10-21T23:32:37.651Z,101843.00
2018-10-21T23:35:08.350Z,101829.00
2018-10-21T23:37:37.914Z,101837.00
2018-10-21T23:40:08.279Z,101843.00
2018-10-21T23:42:37.842Z,101829.00
2018-10-21T23:45:07.447Z,101833.00
2018-10-21T23:47:38.022Z,101832.00
2018-10-21T23:50:08.382Z,101835.00
2018-10-21T23:52:37.930Z,101839.00
2018-10-21T23:55:07.825Z,101835.00
2018-10-21T23:57:37.377Z,101829.00
